createdAt,value
2023-06-15T00:00:56.944Z,0.70
2023-06-15T00:03:23.494Z,0.77
2023-06-15T00:05:50.038Z,0.60
2023-06-15T00:08:16.479Z,0.57
2023-06-15T00:10:43.041Z,1.37
2023-06-15T00:13:10.719Z,0.77
2023-06-15T00:15:37.527Z,1.17
2023-06-15T00:18:04.261Z,0.90
2023-06-15T00:20:30.689Z,0.93
2023-06-15T00:22:58.287Z,0.90
2023-06-15T00:25:24.949Z,1.08
2023-06-15T00:27:51.761Z,1.00
2023-06-15T00:30:19.144Z,1.13
2023-06-15T00:32:45.689Z,1.10
2023-06-15T00:35:12.182Z,0.90
2023-06-15T00:37:38.708Z,0.82
2023-06-15T00:40:07.596Z,1.17
2023-06-15T00:42:34.165Z,1.27
2023-06-15T00:45:00.593Z,1.10
2023-06-15T00:47:27.727Z,0.90
2023-06-15T00:49:54.444Z,0.77
2023-06-15T00:52:22.546Z,1.00
2023-06-15T00:54:49.448Z,1.00
2023-06-15T00:57:16.890Z,1.08
2023-06-15T00:59:43.442Z,1.10
2023-06-15T01:02:13.752Z,0.90
2023-06-15T01:04:41.223Z,0.85
2023-06-15T01:07:11.679Z,1.10
2023-06-15T01:09:42.450Z,0.88
2023-06-15T01:12:15.159Z,1.07
2023-06-15T01:14:42.224Z,1.35
2023-06-15T01:17:16.888Z,1.08
2023-06-15T01:19:55.541Z,1.20
2023-06-15T01:22:30.621Z,1.33
2023-06-15T01:25:43.613Z,1.20
2023-06-15T01:28:12.177Z,0.80
2023-06-15T01:30:43.913Z,1.10
2023-06-15T01:33:12.212Z,1.73
2023-06-15T01:35:39.357Z,1.38
2023-06-15T01:38:05.914Z,1.07
2023-06-15T01:40:34.523Z,0.95
2023-06-15T01:43:02.688Z,1.20
2023-06-15T01:45:31.179Z,0.93
2023-06-15T01:47:58.072Z,1.20
2023-06-15T01:50:25.566Z,1.17
2023-06-15T01:52:52.260Z,1.00
2023-06-15T01:55:18.936Z,0.93
2023-06-15T01:57:47.758Z,1.25
2023-06-15T02:00:14.445Z,1.30
2023-06-15T02:02:40.985Z,1.23
2023-06-15T02:05:08.137Z,1.02
2023-06-15T02:07:34.744Z,1.10
2023-06-15T02:10:01.272Z,1.00
2023-06-15T02:12:27.701Z,1.40
2023-06-15T02:14:54.180Z,1.20
2023-06-15T02:17:20.801Z,1.13
2023-06-15T02:19:47.933Z,1.25
2023-06-15T02:22:16.421Z,1.23
2023-06-15T02:24:43.400Z,1.30
2023-06-15T02:27:10.030Z,1.23
2023-06-15T02:29:36.465Z,1.30
2023-06-15T02:32:02.979Z,1.02
2023-06-15T02:34:29.493Z,1.83
2023-06-15T02:36:56.004Z,1.35
2023-06-15T02:39:22.638Z,1.27
2023-06-15T02:41:49.241Z,2.30
2023-06-15T02:44:19.065Z,1.20
2023-06-15T02:46:45.919Z,1.65
2023-06-15T02:49:12.371Z,1.23
2023-06-15T02:51:38.856Z,1.50
2023-06-15T02:54:06.933Z,1.40
2023-06-15T02:56:37.243Z,1.13
2023-06-15T02:59:03.830Z,1.63
2023-06-15T03:01:39.353Z,1.38
2023-06-15T03:04:10.921Z,1.73
2023-06-15T03:06:42.031Z,1.67
2023-06-15T03:09:08.515Z,1.48
2023-06-15T03:11:34.982Z,1.70
2023-06-15T03:14:01.483Z,1.75
2023-06-15T03:16:27.851Z,2.13
2023-06-15T03:18:54.442Z,1.75
2023-06-15T03:21:24.255Z,1.50
2023-06-15T03:23:51.509Z,1.58
2023-06-15T03:26:18.070Z,1.35
2023-06-15T03:28:46.758Z,1.70
2023-06-15T03:31:18.283Z,1.52
2023-06-15T03:33:46.289Z,1.67
2023-06-15T03:36:14.693Z,2.22
2023-06-15T03:38:45.106Z,2.17
2023-06-15T03:41:11.545Z,1.63
2023-06-15T03:43:38.710Z,1.63
2023-06-15T03:46:06.120Z,1.77
2023-06-15T03:48:32.587Z,1.85
2023-06-15T03:50:59.008Z,1.75
2023-06-15T03:53:25.679Z,1.37
2023-06-15T03:55:52.462Z,2.35
2023-06-15T03:58:18.955Z,1.90
2023-06-15T04:00:46.615Z,1.98
2023-06-15T04:03:13.425Z,1.70
2023-06-15T04:05:40.391Z,1.97
2023-06-15T04:08:09.567Z,1.40
2023-06-15T04:10:36.957Z,1.95
2023-06-15T04:13:03.634Z,1.80
2023-06-15T04:15:30.051Z,2.40
2023-06-15T04:17:56.464Z,1.63
2023-06-15T04:20:22.919Z,1.90
2023-06-15T04:22:49.311Z,1.60
2023-06-15T04:25:17.162Z,1.63
2023-06-15T04:27:45.850Z,1.70
2023-06-15T04:30:17.888Z,1.80
2023-06-15T04:32:44.730Z,1.90
2023-06-15T04:35:19.097Z,1.92
2023-06-15T04:37:45.903Z,1.77
2023-06-15T04:40:12.985Z,1.83
2023-06-15T04:42:41.720Z,1.90
2023-06-15T04:45:09.064Z,2.17
2023-06-15T04:47:35.472Z,1.73
2023-06-15T04:50:01.884Z,2.08
2023-06-15T04:52:28.283Z,2.13
2023-06-15T04:54:54.759Z,2.27
2023-06-15T04:57:21.152Z,2.05
2023-06-15T04:59:47.932Z,2.08
2023-06-15T05:02:14.394Z,1.90
2023-06-15T05:04:40.973Z,2.10
2023-06-15T05:07:07.425Z,2.13
2023-06-15T05:09:33.801Z,1.85
2023-06-15T05:12:00.184Z,2.35
2023-06-15T05:14:27.504Z,1.92
2023-06-15T05:16:54.806Z,2.28
2023-06-15T05:19:21.991Z,1.80
2023-06-15T05:21:51.462Z,1.70
2023-06-15T05:24:17.990Z,2.28
2023-06-15T05:26:44.418Z,2.25
2023-06-15T05:29:11.642Z,2.40
2023-06-15T05:31:38.047Z,1.90
2023-06-15T05:34:04.486Z,2.08
2023-06-15T05:36:50.868Z,2.40
2023-06-15T05:39:18.260Z,2.38
2023-06-15T05:41:44.663Z,2.50
2023-06-15T05:44:11.297Z,2.40
2023-06-15T05:46:37.769Z,2.92
2023-06-15T05:49:04.149Z,2.47
2023-06-15T05:51:30.573Z,1.92
2023-06-15T05:53:57.010Z,2.50
2023-06-15T05:56:23.702Z,2.80
2023-06-15T05:58:50.160Z,2.45
2023-06-15T06:01:16.541Z,2.40
2023-06-15T06:03:42.948Z,2.90
2023-06-15T06:06:09.505Z,2.60
2023-06-15T06:08:36.245Z,2.23
2023-06-15T06:11:06.194Z,3.08
2023-06-15T06:13:32.553Z,3.42
2023-06-15T06:15:58.932Z,2.90
2023-06-15T06:18:25.343Z,3.03
2023-06-15T06:20:51.767Z,2.47
2023-06-15T06:23:18.226Z,2.97
2023-06-15T06:25:44.672Z,3.40
2023-06-15T06:28:11.283Z,3.03
2023-06-15T06:30:39.205Z,2.90
2023-06-15T06:33:06.094Z,3.40
2023-06-15T06:35:32.624Z,3.25
2023-06-15T06:37:59.063Z,3.03
2023-06-15T06:40:27.126Z,2.60
2023-06-15T06:42:53.761Z,3.03
2023-06-15T06:45:20.409Z,2.90
2023-06-15T06:47:47.003Z,3.33
2023-06-15T06:50:13.475Z,3.05
2023-06-15T06:52:40.018Z,3.70
2023-06-15T06:55:06.910Z,2.85
2023-06-15T06:57:33.693Z,3.40
2023-06-15T07:00:00.187Z,3.10
2023-06-15T07:02:26.713Z,3.10
2023-06-15T07:04:53.151Z,3.10
2023-06-15T07:07:19.547Z,3.80
2023-06-15T07:09:46.379Z,3.40
2023-06-15T07:12:12.769Z,3.00
2023-06-15T07:14:39.481Z,3.15
2023-06-15T07:17:06.716Z,2.92
2023-06-15T07:19:33.148Z,3.17
2023-06-15T07:21:59.666Z,3.90
2023-06-15T07:24:26.084Z,3.58
2023-06-15T07:26:52.496Z,4.00
2023-06-15T07:29:18.871Z,3.97
2023-06-15T07:31:49.635Z,3.47
2023-06-15T07:34:16.614Z,4.67
2023-06-15T07:36:43.175Z,5.43
2023-06-15T07:39:09.574Z,3.65
2023-06-15T07:41:36.007Z,4.30
2023-06-15T07:44:03.443Z,4.40
2023-06-15T07:46:29.848Z,4.10
2023-06-15T07:48:56.201Z,4.30
2023-06-15T07:51:37.477Z,4.20
2023-06-15T07:54:08.589Z,4.20
2023-06-15T07:56:35.091Z,4.18
2023-06-15T07:59:01.518Z,4.20
2023-06-15T08:01:27.950Z,3.83
2023-06-15T08:03:54.474Z,3.78
2023-06-15T08:06:20.924Z,4.25
2023-06-15T08:08:47.327Z,4.22
2023-06-15T08:11:14.284Z,4.93
2023-06-15T08:13:40.753Z,4.00
2023-06-15T08:16:07.484Z,4.00
2023-06-15T08:18:34.192Z,3.40
2023-06-15T08:21:01.299Z,4.20
2023-06-15T08:23:27.910Z,3.63
2023-06-15T08:25:54.428Z,3.20
2023-06-15T08:28:21.920Z,4.22
2023-06-15T08:30:48.488Z,3.70
2023-06-15T08:33:15.922Z,3.28
2023-06-15T08:35:42.372Z,3.33
2023-06-15T08:38:08.812Z,3.40
2023-06-15T08:40:35.324Z,3.35
2023-06-15T08:43:04.227Z,3.35
2023-06-15T08:45:40.376Z,4.65
2023-06-15T08:48:08.787Z,2.77
2023-06-15T08:50:38.713Z,2.25
2023-06-15T08:53:06.387Z,2.53
2023-06-15T08:55:33.481Z,2.90
2023-06-15T08:58:00.857Z,3.15
2023-06-15T09:00:27.302Z,3.03
2023-06-15T09:02:58.690Z,2.70
2023-06-15T09:05:27.548Z,2.75
2023-06-15T09:07:54.321Z,3.35
2023-06-15T09:10:22.841Z,3.25
2023-06-15T09:12:52.873Z,3.07
2023-06-15T09:15:28.080Z,2.95
2023-06-15T09:17:59.536Z,2.22
2023-06-15T09:20:39.440Z,2.15
2023-06-15T09:23:11.391Z,2.10
2023-06-15T09:25:38.018Z,2.40
2023-06-15T09:28:08.092Z,2.20
2023-06-15T09:30:39.421Z,3.05
2023-06-15T09:33:17.536Z,2.30
2023-06-15T09:36:10.380Z,2.00
2023-06-15T09:38:45.173Z,2.20
2023-06-15T09:41:11.640Z,2.63
2023-06-15T09:43:41.200Z,2.83
2023-06-15T09:46:13.508Z,2.45
2023-06-15T09:48:41.529Z,2.55
2023-06-15T09:51:08.082Z,2.10
2023-06-15T09:53:34.681Z,2.20
2023-06-15T09:56:04.069Z,1.80
2023-06-15T09:58:35.634Z,2.30
2023-06-15T10:01:05.524Z,2.33
2023-06-15T10:03:33.303Z,2.00
2023-06-15T10:06:06.967Z,2.15
2023-06-15T10:08:35.809Z,1.88
2023-06-15T10:11:02.486Z,1.75
2023-06-15T10:13:36.816Z,1.83
2023-06-15T10:16:05.960Z,1.77
2023-06-15T10:18:33.345Z,1.42
2023-06-15T10:21:03.724Z,2.22
2023-06-15T10:23:41.765Z,1.60
2023-06-15T10:26:12.708Z,1.50
2023-06-15T10:28:46.599Z,1.27
2023-06-15T10:31:22.915Z,1.50
2023-06-15T10:34:06.604Z,1.73
2023-06-15T10:36:51.553Z,1.88
2023-06-15T10:39:26.053Z,1.77
2023-06-15T10:41:58.039Z,1.80
2023-06-15T10:44:32.372Z,1.75
2023-06-15T10:47:13.843Z,1.75
2023-06-15T10:49:52.385Z,1.60
2023-06-15T10:52:19.786Z,2.08
2023-06-15T10:54:47.269Z,1.80
2023-06-15T10:57:18.520Z,1.70
2023-06-15T10:59:55.676Z,1.75
2023-06-15T11:02:34.372Z,2.17
2023-06-15T11:05:02.722Z,1.77
2023-06-15T11:07:30.636Z,2.07
2023-06-15T11:09:57.895Z,1.75
2023-06-15T11:12:42.221Z,2.47
2023-06-15T11:15:11.012Z,2.55
2023-06-15T11:17:52.809Z,1.50
2023-06-15T11:20:43.222Z,1.83
2023-06-15T11:23:12.378Z,2.83
2023-06-15T11:25:45.876Z,2.08
2023-06-15T11:28:23.541Z,1.95
2023-06-15T11:30:53.846Z,2.25
2023-06-15T11:33:28.424Z,1.77
2023-06-15T11:35:55.590Z,1.70
2023-06-15T11:38:26.875Z,2.10
2023-06-15T11:41:00.180Z,1.63
2023-06-15T11:43:31.540Z,1.90
2023-06-15T11:45:58.178Z,1.60
2023-06-15T11:48:25.455Z,1.70
2023-06-15T11:50:51.863Z,1.60
2023-06-15T11:53:18.299Z,1.77
2023-06-15T11:55:46.100Z,1.73
2023-06-15T11:58:13.303Z,2.30
2023-06-15T12:00:40.659Z,1.85
2023-06-15T12:03:13.908Z,1.48
2023-06-15T12:05:42.602Z,1.98
2023-06-15T12:08:11.691Z,1.95
2023-06-15T12:10:38.897Z,2.30
2023-06-15T12:13:12.600Z,2.47
2023-06-15T12:15:43.467Z,1.30
2023-06-15T12:18:10.031Z,1.58
2023-06-15T12:20:38.556Z,1.67
2023-06-15T12:23:08.149Z,1.53
2023-06-15T12:25:49.254Z,1.70
2023-06-15T12:28:17.590Z,1.88
2023-06-15T12:30:45.684Z,1.83
2023-06-15T12:33:53.765Z,2.08
2023-06-15T12:36:21.090Z,2.60
2023-06-15T12:38:50.137Z,1.67
2023-06-15T12:41:17.407Z,1.73
2023-06-15T12:43:46.283Z,2.00
2023-06-15T12:46:13.059Z,1.73
2023-06-15T12:48:39.493Z,1.50
2023-06-15T12:51:06.019Z,1.42
2023-06-15T12:53:32.474Z,1.30
2023-06-15T12:55:58.929Z,1.33
2023-06-15T12:58:25.331Z,1.75
2023-06-15T13:00:51.760Z,1.10
2023-06-15T13:03:18.440Z,1.67
2023-06-15T13:05:44.927Z,1.38
2023-06-15T13:08:12.540Z,1.48
2023-06-15T13:10:39.215Z,1.25
2023-06-15T13:13:05.745Z,1.30
2023-06-15T13:15:32.549Z,1.00
2023-06-15T13:17:59.054Z,1.50
2023-06-15T13:20:25.583Z,1.17
2023-06-15T13:22:52.688Z,1.30
2023-06-15T13:25:20.616Z,1.17
2023-06-15T13:27:47.807Z,1.17
2023-06-15T13:30:15.537Z,1.15
2023-06-15T13:32:44.663Z,1.30
2023-06-15T13:35:11.727Z,1.08
2023-06-15T13:37:39.173Z,1.23
2023-06-15T13:40:07.298Z,1.20
2023-06-15T13:42:39.277Z,1.02
2023-06-15T13:45:14.998Z,1.60
2023-06-15T13:47:42.970Z,1.00
2023-06-15T13:50:13.613Z,1.13
2023-06-15T13:52:41.495Z,0.80
2023-06-15T13:55:08.904Z,1.00
2023-06-15T13:57:36.151Z,1.50
2023-06-15T14:00:04.005Z,1.20
2023-06-15T14:02:31.347Z,1.20
2023-06-15T14:04:58.507Z,1.45
2023-06-15T14:07:25.787Z,0.95
2023-06-15T14:09:52.244Z,1.23
2023-06-15T14:12:18.663Z,1.25
2023-06-15T14:14:45.159Z,1.20
2023-06-15T14:17:11.824Z,1.02
2023-06-15T14:19:40.865Z,1.40
2023-06-15T14:22:07.329Z,1.08
2023-06-15T14:24:33.904Z,0.95
2023-06-15T14:27:00.428Z,1.73
2023-06-15T14:29:26.798Z,1.20
2023-06-15T14:31:53.930Z,1.20
2023-06-15T14:34:22.440Z,0.95
2023-06-15T14:36:50.211Z,1.00
2023-06-15T14:39:17.232Z,1.13
2023-06-15T14:41:44.331Z,1.05
2023-06-15T14:44:12.848Z,1.20
2023-06-15T14:46:41.314Z,0.95
2023-06-15T14:49:09.206Z,0.80
2023-06-15T14:51:36.885Z,0.97
2023-06-15T14:54:04.623Z,1.17
2023-06-15T14:56:31.801Z,1.63
2023-06-15T14:59:00.784Z,1.20
2023-06-15T15:01:28.302Z,0.60
2023-06-15T15:03:55.713Z,1.07
2023-06-15T15:06:23.032Z,1.15
2023-06-15T15:08:51.558Z,0.88
2023-06-15T15:11:18.799Z,0.82
2023-06-15T15:13:45.327Z,0.80
2023-06-15T15:16:12.077Z,0.60
2023-06-15T15:18:39.454Z,1.20
2023-06-15T15:21:06.525Z,1.00
2023-06-15T15:23:33.586Z,1.08
2023-06-15T15:26:01.080Z,2.33
2023-06-15T15:28:29.391Z,1.17
2023-06-15T15:30:55.887Z,1.35
2023-06-15T15:33:22.356Z,1.02
2023-06-15T15:35:48.893Z,1.20
2023-06-15T15:38:15.296Z,1.30
2023-06-15T15:40:41.854Z,1.10
2023-06-15T15:43:08.370Z,1.05
2023-06-15T15:45:36.557Z,1.10
2023-06-15T15:48:03.583Z,0.63
2023-06-15T15:50:31.791Z,0.80
2023-06-15T15:52:58.186Z,1.00
2023-06-15T15:55:25.035Z,1.02
2023-06-15T15:57:51.797Z,0.95
2023-06-15T16:00:18.572Z,0.95
2023-06-15T16:02:47.388Z,0.90
2023-06-15T16:05:14.262Z,0.80
2023-06-15T16:07:41.784Z,0.95
2023-06-15T16:10:09.425Z,0.73
2023-06-15T16:12:35.984Z,1.02
2023-06-15T16:15:03.622Z,1.30
2023-06-15T16:17:30.136Z,0.97
2023-06-15T16:19:56.753Z,0.98
2023-06-15T16:22:25.397Z,0.80
2023-06-15T16:24:52.027Z,0.80
2023-06-15T16:27:18.911Z,0.63
2023-06-15T16:29:45.373Z,0.90
2023-06-15T16:32:11.752Z,1.02
2023-06-15T16:34:38.188Z,2.13
2023-06-15T16:37:04.855Z,0.80
2023-06-15T16:39:51.731Z,0.60
2023-06-15T16:42:21.231Z,1.37
2023-06-15T16:44:49.088Z,0.90
2023-06-15T16:47:16.277Z,0.75
2023-06-15T16:49:44.880Z,0.93
2023-06-15T16:52:12.507Z,1.05
2023-06-15T16:54:40.161Z,0.83
2023-06-15T16:57:11.690Z,0.90
2023-06-15T16:59:42.423Z,0.85
2023-06-15T17:02:11.333Z,1.02
2023-06-15T17:04:38.006Z,1.02
2023-06-15T17:07:05.281Z,1.13
2023-06-15T17:09:32.528Z,0.60
2023-06-15T17:11:59.489Z,0.82
2023-06-15T17:14:27.317Z,1.00
2023-06-15T17:16:54.828Z,0.95
2023-06-15T17:19:21.598Z,0.87
2023-06-15T17:21:48.092Z,0.50
2023-06-15T17:24:14.705Z,0.77
2023-06-15T17:26:41.914Z,0.90
2023-06-15T17:29:10.210Z,0.60
2023-06-15T17:31:36.712Z,0.57
2023-06-15T17:34:03.264Z,0.60
2023-06-15T17:36:29.808Z,1.00
2023-06-15T17:38:56.391Z,0.70
2023-06-15T17:41:23.177Z,1.00
2023-06-15T17:43:49.688Z,0.80
2023-06-15T17:46:16.243Z,0.60
2023-06-15T17:48:42.658Z,0.77
2023-06-15T17:51:09.016Z,0.60
2023-06-15T17:53:35.709Z,0.70
2023-06-15T17:56:03.556Z,0.47
2023-06-15T17:58:30.558Z,0.70
2023-06-15T18:00:57.791Z,0.55
2023-06-15T18:03:25.125Z,0.93
2023-06-15T18:05:52.679Z,2.10
2023-06-15T18:08:19.546Z,0.80
2023-06-15T18:10:49.547Z,0.60
2023-06-15T18:13:16.209Z,0.80
2023-06-15T18:15:42.835Z,0.80
2023-06-15T18:18:10.587Z,0.50
2023-06-15T18:20:39.357Z,0.80
2023-06-15T18:23:10.079Z,0.50
2023-06-15T18:25:37.032Z,0.60
2023-06-15T18:28:04.545Z,0.63
2023-06-15T18:30:31.534Z,0.60
2023-06-15T18:32:58.645Z,0.90
2023-06-15T18:35:25.344Z,0.88
2023-06-15T18:37:52.856Z,0.65
2023-06-15T18:40:19.648Z,0.80
2023-06-15T18:42:46.124Z,1.00
2023-06-15T18:45:13.186Z,0.70
2023-06-15T18:47:39.966Z,0.75
2023-06-15T18:50:08.204Z,0.63
2023-06-15T18:52:35.166Z,0.80
2023-06-15T18:55:02.190Z,0.70
2023-06-15T18:57:28.628Z,0.70
2023-06-15T18:59:55.089Z,0.60
2023-06-15T19:02:21.555Z,0.60
2023-06-15T19:04:48.183Z,1.92
2023-06-15T19:07:15.895Z,1.00
2023-06-15T19:09:43.065Z,1.00
2023-06-15T19:12:09.902Z,0.60
2023-06-15T19:14:39.007Z,0.75
2023-06-15T19:17:10.449Z,0.95
2023-06-15T19:19:37.522Z,0.82
2023-06-15T19:22:04.605Z,0.77
2023-06-15T19:24:34.747Z,1.05
2023-06-15T19:27:01.795Z,0.60
2023-06-15T19:29:28.171Z,0.50
2023-06-15T19:31:54.788Z,0.63
2023-06-15T19:34:21.772Z,0.60
2023-06-15T19:36:51.826Z,0.65
2023-06-15T19:39:19.478Z,0.63
2023-06-15T19:41:46.198Z,0.70
2023-06-15T19:44:12.659Z,0.60
2023-06-15T19:46:39.068Z,1.00
2023-06-15T19:49:05.441Z,0.52
2023-06-15T19:51:31.876Z,0.90
2023-06-15T19:53:58.358Z,0.80
2023-06-15T19:56:24.798Z,0.63
2023-06-15T19:58:51.691Z,1.27
2023-06-15T20:01:18.572Z,0.60
2023-06-15T20:03:46.772Z,0.50
2023-06-15T20:06:13.461Z,0.65
2023-06-15T20:08:40.001Z,0.55
2023-06-15T20:11:08.150Z,0.60
2023-06-15T20:13:35.728Z,0.80
2023-06-15T20:16:05.945Z,0.60
2023-06-15T20:18:32.579Z,0.70
2023-06-15T20:20:59.111Z,0.55
2023-06-15T20:23:26.621Z,0.70
2023-06-15T20:25:53.133Z,0.60
2023-06-15T20:28:19.579Z,0.80
2023-06-15T20:30:46.055Z,1.00
2023-06-15T20:33:12.539Z,0.95
2023-06-15T20:35:38.902Z,0.73
2023-06-15T20:38:05.550Z,0.82
2023-06-15T20:40:32.140Z,0.63
2023-06-15T20:43:01.270Z,0.73
2023-06-15T20:45:27.728Z,0.80
2023-06-15T20:47:54.168Z,0.70
2023-06-15T20:50:20.777Z,0.60
2023-06-15T20:52:47.452Z,0.95
2023-06-15T20:55:13.925Z,0.60
2023-06-15T20:57:40.536Z,0.95
2023-06-15T21:00:09.339Z,1.07
2023-06-15T21:02:37.079Z,1.00
2023-06-15T21:05:05.362Z,0.60
2023-06-15T21:07:31.769Z,0.90
2023-06-15T21:09:58.194Z,1.17
2023-06-15T21:12:24.683Z,0.93
2023-06-15T21:14:51.247Z,1.10
2023-06-15T21:17:17.740Z,1.08
2023-06-15T21:19:44.101Z,1.08
2023-06-15T21:22:10.464Z,1.20
2023-06-15T21:24:37.687Z,0.90
2023-06-15T21:27:04.755Z,0.80
2023-06-15T21:29:31.390Z,0.93
2023-06-15T21:31:57.831Z,0.98
2023-06-15T21:34:24.369Z,0.98
2023-06-15T21:36:50.750Z,1.10
2023-06-15T21:39:17.294Z,0.82
2023-06-15T21:41:43.952Z,1.73
2023-06-15T21:44:10.366Z,1.17
2023-06-15T21:46:36.782Z,0.82
2023-06-15T21:49:03.296Z,0.77
2023-06-15T21:51:29.721Z,0.85
2023-06-15T21:53:56.102Z,0.70
2023-06-15T21:56:22.531Z,0.98
2023-06-15T21:58:48.999Z,1.10
2023-06-15T22:01:15.641Z,1.33
2023-06-15T22:03:42.059Z,1.00
2023-06-15T22:06:08.426Z,0.93
2023-06-15T22:08:35.447Z,1.10
2023-06-15T22:11:02.235Z,1.27
2023-06-15T22:13:30.437Z,0.90
2023-06-15T22:15:57.207Z,1.17
2023-06-15T22:18:27.051Z,1.50
2023-06-15T22:20:58.375Z,2.20
2023-06-15T22:23:25.438Z,4.10
2023-06-15T22:25:56.498Z,3.17
2023-06-15T22:28:23.975Z,2.95
2023-06-15T22:30:50.993Z,3.03
2023-06-15T22:33:19.896Z,1.95
2023-06-15T22:35:46.431Z,1.95
2023-06-15T22:38:12.866Z,2.10
2023-06-15T22:40:39.245Z,2.47
2023-06-15T22:43:05.763Z,1.75
2023-06-15T22:45:32.239Z,1.42
2023-06-15T22:47:58.789Z,2.10
2023-06-15T22:50:25.271Z,1.80
2023-06-15T22:52:55.525Z,1.80
2023-06-15T22:55:25.827Z,1.58
2023-06-15T22:57:52.227Z,1.48
2023-06-15T23:00:19.259Z,1.80
2023-06-15T23:02:46.299Z,1.30
2023-06-15T23:05:17.836Z,1.50
2023-06-15T23:07:49.568Z,1.20
2023-06-15T23:10:21.766Z,1.30
2023-06-15T23:12:51.399Z,1.70
2023-06-15T23:15:21.125Z,1.47
2023-06-15T23:17:48.807Z,1.40
2023-06-15T23:20:19.652Z,1.33
2023-06-15T23:22:52.755Z,1.38
2023-06-15T23:25:24.262Z,1.33
2023-06-15T23:27:55.272Z,1.20
2023-06-15T23:30:22.783Z,1.00
2023-06-15T23:32:49.888Z,1.25
2023-06-15T23:35:17.099Z,1.20
2023-06-15T23:37:43.512Z,1.30
2023-06-15T23:40:10.822Z,1.40
2023-06-15T23:42:37.352Z,1.30
2023-06-15T23:45:03.985Z,0.90
2023-06-15T23:47:31.258Z,0.77
2023-06-15T23:49:58.640Z,1.15
2023-06-15T23:52:25.238Z,1.43
2023-06-15T23:54:52.059Z,1.00
2023-06-15T23:57:18.643Z,1.60
2023-06-15T23:59:45.536Z,1.20
